sensor_id;sensor_type;location;lat;lon;timestamp;pressure;altitude;pressure_sealevel;temperature;humidity
58967;BME280;44744;51.894;5.080;2022-09-21T00:00:45;102782.00;;;12.11;67.70
58967;BME280;44744;51.894;5.080;2022-09-21T00:01:53;102780.11;;;12.08;67.68
58967;BME280;44744;51.894;5.080;2022-09-21T00:03:04;102783.91;;;12.06;67.64
58967;BME280;44744;51.894;5.080;2022-09-21T00:04:05;102781.69;;;12.03;67.68
58967;BME280;44744;51.894;5.080;2022-09-21T00:05:07;102780.55;;;12.00;67.68
58967;BME280;44744;51.894;5.080;2022-09-21T00:06:09;102783.98;;;11.98;67.72
58967;BME280;44744;51.894;5.080;2022-09-21T00:07:11;102779.86;;;11.92;67.65
58967;BME280;44744;51.894;5.080;2022-09-21T00:08:15;102779.95;;;11.89;67.73
58967;BME280;44744;51.894;5.080;2022-09-21T00:09:16;102780.35;;;11.87;67.80
58967;BME280;44744;51.894;5.080;2022-09-21T00:10:18;102778.61;;;11.87;67.81
58967;BME280;44744;51.894;5.080;2022-09-21T00:11:23;102780.54;;;11.87;67.96
58967;BME280;44744;51.894;5.080;2022-09-21T00:12:23;102778.77;;;11.87;67.90
58967;BME280;44744;51.894;5.080;2022-09-21T00:13:27;102776.29;;;11.87;68.03
58967;BME280;44744;51.894;5.080;2022-09-21T00:14:28;102778.41;;;11.87;67.99
58967;BME280;44744;51.894;5.080;2022-09-21T00:15:30;102778.05;;;11.87;68.05
58967;BME280;44744;51.894;5.080;2022-09-21T00:16:32;102779.33;;;11.86;68.08
58967;BME280;44744;51.894;5.080;2022-09-21T00:17:38;102778.48;;;11.85;68.05
58967;BME280;44744;51.894;5.080;2022-09-21T00:18:41;102778.16;;;11.84;68.07
58967;BME280;44744;51.894;5.080;2022-09-21T00:19:43;102778.92;;;11.82;68.09
58967;BME280;44744;51.894;5.080;2022-09-21T00:20:48;102776.09;;;11.81;68.07
58967;BME280;44744;51.894;5.080;2022-09-21T00:21:53;102777.16;;;11.81;68.06
58967;BME280;44744;51.894;5.080;2022-09-21T00:22:59;102775.58;;;11.81;68.17
58967;BME280;44744;51.894;5.080;2022-09-21T00:24:04;102775.21;;;11.82;68.14
58967;BME280;44744;51.894;5.080;2022-09-21T00:25:10;102774.29;;;11.83;68.21
58967;BME280;44744;51.894;5.080;2022-09-21T00:26:12;102773.55;;;11.84;68.21
58967;BME280;44744;51.894;5.080;2022-09-21T00:27:13;102773.52;;;11.84;68.19
58967;BME280;44744;51.894;5.080;2022-09-21T00:28:18;102772.47;;;11.84;68.17
58967;BME280;44744;51.894;5.080;2022-09-21T00:29:27;102770.86;;;11.84;68.23
58967;BME280;44744;51.894;5.080;2022-09-21T00:30:29;102773.34;;;11.84;68.22
58967;BME280;44744;51.894;5.080;2022-09-21T00:31:38;102771.28;;;11.82;68.22
58967;BME280;44744;51.894;5.080;2022-09-21T00:32:42;102769.01;;;11.82;68.18
58967;BME280;44744;51.894;5.080;2022-09-21T00:33:43;102771.33;;;11.81;68.24
58967;BME280;44744;51.894;5.080;2022-09-21T00:34:50;102768.89;;;11.79;68.26
58967;BME280;44744;51.894;5.080;2022-09-21T00:35:51;102769.15;;;11.76;68.10
58967;BME280;44744;51.894;5.080;2022-09-21T00:36:52;102766.56;;;11.74;68.15
58967;BME280;44744;51.894;5.080;2022-09-21T00:37:52;102769.61;;;11.73;68.08
58967;BME280;44744;51.894;5.080;2022-09-21T00:38:56;102770.90;;;11.71;68.09
58967;BME280;44744;51.894;5.080;2022-09-21T00:39:59;102769.91;;;11.69;68.04
58967;BME280;44744;51.894;5.080;2022-09-21T00:40:59;102769.08;;;11.66;68.07
58967;BME280;44744;51.894;5.080;2022-09-21T00:42:00;102770.40;;;11.64;68.03
58967;BME280;44744;51.894;5.080;2022-09-21T00:43:18;102771.02;;;11.61;67.98
58967;BME280;44744;51.894;5.080;2022-09-21T00:44:30;102771.10;;;11.58;68.00
58967;BME280;44744;51.894;5.080;2022-09-21T00:45:32;102771.52;;;11.56;68.09
58967;BME280;44744;51.894;5.080;2022-09-21T00:46:33;102772.10;;;11.54;68.03
58967;BME280;44744;51.894;5.080;2022-09-21T00:47:39;102769.85;;;11.52;68.03
58967;BME280;44744;51.894;5.080;2022-09-21T00:48:41;102771.66;;;11.50;68.10
58967;BME280;44744;51.894;5.080;2022-09-21T00:49:45;102775.24;;;11.49;68.05
58967;BME280;44744;51.894;5.080;2022-09-21T00:50:51;102773.00;;;11.47;68.07
58967;BME280;44744;51.894;5.080;2022-09-21T00:51:57;102776.41;;;11.45;68.04
58967;BME280;44744;51.894;5.080;2022-09-21T00:52:59;102774.17;;;11.43;68.10
58967;BME280;44744;51.894;5.080;2022-09-21T00:54:03;102770.38;;;11.40;68.08
58967;BME280;44744;51.894;5.080;2022-09-21T00:55:17;102774.30;;;11.39;68.13
58967;BME280;44744;51.894;5.080;2022-09-21T00:56:21;102772.20;;;11.37;68.26
58967;BME280;44744;51.894;5.080;2022-09-21T00:57:30;102773.00;;;11.34;68.19
58967;BME280;44744;51.894;5.080;2022-09-21T00:58:44;102773.21;;;11.33;68.23
58967;BME280;44744;51.894;5.080;2022-09-21T00:59:49;102773.83;;;11.30;68.27
58967;BME280;44744;51.894;5.080;2022-09-21T01:00:50;102776.02;;;11.27;68.22
58967;BME280;44744;51.894;5.080;2022-09-21T01:01:51;102774.81;;;11.26;68.20
58967;BME280;44744;51.894;5.080;2022-09-21T01:02:57;102773.98;;;11.24;68.22
58967;BME280;44744;51.894;5.080;2022-09-21T01:03:59;102775.30;;;11.21;68.18
58967;BME280;44744;51.894;5.080;2022-09-21T01:05:06;102772.55;;;11.18;68.21
58967;BME280;44744;51.894;5.080;2022-09-21T01:06:12;102772.81;;;11.15;68.19
58967;BME280;44744;51.894;5.080;2022-09-21T01:07:17;102775.47;;;11.15;68.25
58967;BME280;44744;51.894;5.080;2022-09-21T01:08:20;102776.73;;;11.14;68.28
58967;BME280;44744;51.894;5.080;2022-09-21T01:09:24;102774.11;;;11.13;68.30
58967;BME280;44744;51.894;5.080;2022-09-21T01:10:31;102775.21;;;11.12;68.32
58967;BME280;44744;51.894;5.080;2022-09-21T01:14:49;102775.06;;;11.03;68.25
58967;BME280;44744;51.894;5.080;2022-09-21T01:22:17;102781.44;;;10.82;68.20
58967;BME280;44744;51.894;5.080;2022-09-21T01:25:37;102778.36;;;10.79;68.37
58967;BME280;44744;51.894;5.080;2022-09-21T01:30:21;102780.23;;;10.67;68.30
58967;BME280;44744;51.894;5.080;2022-09-21T01:31:27;102778.86;;;10.65;68.34
58967;BME280;44744;51.894;5.080;2022-09-21T01:33:20;102774.99;;;10.65;68.46
58967;BME280;44744;51.894;5.080;2022-09-21T01:35:47;102772.92;;;10.62;68.50
58967;BME280;44744;51.894;5.080;2022-09-21T01:36:54;102775.61;;;10.61;68.47
58967;BME280;44744;51.894;5.080;2022-09-21T01:38:02;102777.93;;;10.60;68.58
58967;BME280;44744;51.894;5.080;2022-09-21T01:39:11;102780.02;;;10.62;68.56
58967;BME280;44744;51.894;5.080;2022-09-21T01:40:20;102778.45;;;10.61;68.62
58967;BME280;44744;51.894;5.080;2022-09-21T01:41:31;102777.42;;;10.58;68.50
58967;BME280;44744;51.894;5.080;2022-09-21T01:42:40;102777.63;;;10.57;68.53
58967;BME280;44744;51.894;5.080;2022-09-21T01:43:52;102776.95;;;10.56;68.48
58967;BME280;44744;51.894;5.080;2022-09-21T01:44:57;102776.83;;;10.54;68.40
58967;BME280;44744;51.894;5.080;2022-09-21T01:46:02;102776.19;;;10.51;68.50
58967;BME280;44744;51.894;5.080;2022-09-21T01:47:16;102774.95;;;10.51;68.59
58967;BME280;44744;51.894;5.080;2022-09-21T01:48:20;102772.13;;;10.51;68.61
58967;BME280;44744;51.894;5.080;2022-09-21T01:49:38;102774.96;;;10.51;68.58
58967;BME280;44744;51.894;5.080;2022-09-21T01:50:52;102776.04;;;10.50;68.49
58967;BME280;44744;51.894;5.080;2022-09-21T01:52:21;102775.20;;;10.47;68.55
58967;BME280;44744;51.894;5.080;2022-09-21T01:53:38;102776.31;;;10.46;68.64
58967;BME280;44744;51.894;5.080;2022-09-21T01:55:36;102778.83;;;10.44;68.72
58967;BME280;44744;51.894;5.080;2022-09-21T01:56:43;102781.52;;;10.43;68.79
58967;BME280;44744;51.894;5.080;2022-09-21T01:57:59;102779.06;;;10.42;68.78
58967;BME280;44744;51.894;5.080;2022-09-21T01:59:48;102777.69;;;10.40;68.81
58967;BME280;44744;51.894;5.080;2022-09-21T02:00:56;102780.03;;;10.38;68.82
58967;BME280;44744;51.894;5.080;2022-09-21T02:02:14;102777.77;;;10.37;68.85
58967;BME280;44744;51.894;5.080;2022-09-21T02:03:36;102776.00;;;10.37;68.81
58967;BME280;44744;51.894;5.080;2022-09-21T02:04:39;102774.94;;;10.36;68.86
58967;BME280;44744;51.894;5.080;2022-09-21T02:05:40;102775.63;;;10.38;68.92
58967;BME280;44744;51.894;5.080;2022-09-21T02:07:05;102773.88;;;10.37;68.93
58967;BME280;44744;51.894;5.080;2022-09-21T02:08:16;102775.05;;;10.39;68.90
58967;BME280;44744;51.894;5.080;2022-09-21T02:09:17;102771.51;;;10.39;68.89
58967;BME280;44744;51.894;5.080;2022-09-21T02:10:32;102773.65;;;10.39;68.82
58967;BME280;44744;51.894;5.080;2022-09-21T02:11:34;102772.08;;;10.38;68.89
58967;BME280;44744;51.894;5.080;2022-09-21T02:12:52;102774.94;;;10.37;68.83
58967;BME280;44744;51.894;5.080;2022-09-21T02:14:05;102773.73;;;10.35;68.90
58967;BME280;44744;51.894;5.080;2022-09-21T02:15:08;102770.77;;;10.33;68.94
58967;BME280;44744;51.894;5.080;2022-09-21T02:16:28;102773.21;;;10.33;68.86
58967;BME280;44744;51.894;5.080;2022-09-21T02:20:51;102778.13;;;10.27;69.05
58967;BME280;44744;51.894;5.080;2022-09-21T02:23:38;102779.39;;;10.26;69.13
58967;BME280;44744;51.894;5.080;2022-09-21T02:26:32;102779.55;;;10.27;69.28
58967;BME280;44744;51.894;5.080;2022-09-21T02:27:49;102779.54;;;10.28;69.28
58967;BME280;44744;51.894;5.080;2022-09-21T02:30:33;102779.59;;;10.25;69.32
58967;BME280;44744;51.894;5.080;2022-09-21T02:31:51;102781.91;;;10.24;69.34
58967;BME280;44744;51.894;5.080;2022-09-21T02:33:23;102781.94;;;10.22;69.34
58967;BME280;44744;51.894;5.080;2022-09-21T02:34:45;102779.38;;;10.19;69.30
58967;BME280;44744;51.894;5.080;2022-09-21T02:36:30;102779.45;;;10.15;69.24
58967;BME280;44744;51.894;5.080;2022-09-21T02:38:10;102781.51;;;10.11;69.28
58967;BME280;44744;51.894;5.080;2022-09-21T02:39:34;102778.38;;;10.08;69.42
58967;BME280;44744;51.894;5.080;2022-09-21T02:41:03;102780.34;;;10.07;69.44
58967;BME280;44744;51.894;5.080;2022-09-21T02:42:14;102779.12;;;10.06;69.30
58967;BME280;44744;51.894;5.080;2022-09-21T02:43:32;102779.14;;;10.05;69.36
58967;BME280;44744;51.894;5.080;2022-09-21T02:44:49;102776.85;;;10.05;69.49
58967;BME280;44744;51.894;5.080;2022-09-21T02:46:12;102775.76;;;10.06;69.43
58967;BME280;44744;51.894;5.080;2022-09-21T02:47:37;102777.33;;;10.07;69.43
58967;BME280;44744;51.894;5.080;2022-09-21T02:49:13;102776.10;;;10.07;69.40
58967;BME280;44744;51.894;5.080;2022-09-21T02:50:39;102775.08;;;10.05;69.35
58967;BME280;44744;51.894;5.080;2022-09-21T02:51:49;102775.97;;;10.04;69.34
58967;BME280;44744;51.894;5.080;2022-09-21T02:53:03;102768.39;;;10.04;69.44
58967;BME280;44744;51.894;5.080;2022-09-21T02:54:10;102770.70;;;10.03;69.40
58967;BME280;44744;51.894;5.080;2022-09-21T02:55:21;102770.00;;;10.03;69.41
58967;BME280;44744;51.894;5.080;2022-09-21T02:56:24;102771.41;;;10.03;69.47
58967;BME280;44744;51.894;5.080;2022-09-21T02:57:26;102769.63;;;10.04;69.50
58967;BME280;44744;51.894;5.080;2022-09-21T02:58:27;102773.86;;;10.05;69.44
58967;BME280;44744;51.894;5.080;2022-09-21T02:59:29;102768.73;;;10.04;69.46
58967;BME280;44744;51.894;5.080;2022-09-21T03:00:31;102772.33;;;10.02;69.35
58967;BME280;44744;51.894;5.080;2022-09-21T03:01:34;102773.23;;;10.01;69.35
58967;BME280;44744;51.894;5.080;2022-09-21T03:02:43;102774.16;;;9.99;69.31
58967;BME280;44744;51.894;5.080;2022-09-21T03:03:45;102775.43;;;9.97;69.37
58967;BME280;44744;51.894;5.080;2022-09-21T03:04:47;102773.33;;;9.96;69.34
58967;BME280;44744;51.894;5.080;2022-09-21T03:05:53;102774.41;;;9.96;69.44
58967;BME280;44744;51.894;5.080;2022-09-21T03:06:55;102776.36;;;9.96;69.37
58967;BME280;44744;51.894;5.080;2022-09-21T03:08:00;102773.75;;;9.93;69.29
58967;BME280;44744;51.894;5.080;2022-09-21T03:09:02;102773.10;;;9.90;69.39
58967;BME280;44744;51.894;5.080;2022-09-21T03:10:06;102772.95;;;9.89;69.38
58967;BME280;44744;51.894;5.080;2022-09-21T03:11:10;102771.58;;;9.87;69.43
58967;BME280;44744;51.894;5.080;2022-09-21T03:12:17;102773.14;;;9.88;69.50
58967;BME280;44744;51.894;5.080;2022-09-21T03:13:17;102772.26;;;9.88;69.47
58967;BME280;44744;51.894;5.080;2022-09-21T03:14:18;102771.74;;;9.87;69.51
58967;BME280;44744;51.894;5.080;2022-09-21T03:15:18;102775.31;;;9.87;69.40
58967;BME280;44744;51.894;5.080;2022-09-21T03:16:20;102776.58;;;9.85;69.41
58967;BME280;44744;51.894;5.080;2022-09-21T03:17:21;102777.33;;;9.83;69.28
58967;BME280;44744;51.894;5.080;2022-09-21T03:18:29;102775.42;;;9.81;69.39
58967;BME280;44744;51.894;5.080;2022-09-21T03:19:30;102779.75;;;9.78;69.34
58967;BME280;44744;51.894;5.080;2022-09-21T03:20:35;102779.23;;;9.76;69.39
58967;BME280;44744;51.894;5.080;2022-09-21T03:21:42;102776.26;;;9.75;69.37
58967;BME280;44744;51.894;5.080;2022-09-21T03:22:45;102778.37;;;9.75;69.41
58967;BME280;44744;51.894;5.080;2022-09-21T03:23:54;102778.73;;;9.76;69.44
58967;BME280;44744;51.894;5.080;2022-09-21T03:24:56;102780.15;;;9.74;69.48
58967;BME280;44744;51.894;5.080;2022-09-21T03:25:57;102778.40;;;9.74;69.50
58967;BME280;44744;51.894;5.080;2022-09-21T03:26:59;102781.92;;;9.74;69.53
58967;BME280;44744;51.894;5.080;2022-09-21T03:28:02;102781.58;;;9.74;69.58
58967;BME280;44744;51.894;5.080;2022-09-21T03:29:07;102780.54;;;9.73;69.44
58967;BME280;44744;51.894;5.080;2022-09-21T03:30:08;102781.27;;;9.72;69.56
58967;BME280;44744;51.894;5.080;2022-09-21T03:31:09;102783.38;;;9.72;69.45
58967;BME280;44744;51.894;5.080;2022-09-21T03:32:11;102781.70;;;9.67;69.40
58967;BME280;44744;51.894;5.080;2022-09-21T03:33:12;102784.21;;;9.66;69.37
58967;BME280;44744;51.894;5.080;2022-09-21T03:34:16;102783.38;;;9.64;69.42
58967;BME280;44744;51.894;5.080;2022-09-21T03:35:18;102784.29;;;9.62;69.41
58967;BME280;44744;51.894;5.080;2022-09-21T03:36:21;102785.36;;;9.62;69.47
58967;BME280;44744;51.894;5.080;2022-09-21T03:37:24;102783.42;;;9.62;69.48
58967;BME280;44744;51.894;5.080;2022-09-21T03:38:25;102783.74;;;9.63;69.64
58967;BME280;44744;51.894;5.080;2022-09-21T03:39:28;102787.96;;;9.64;69.47
58967;BME280;44744;51.894;5.080;2022-09-21T03:40:30;102786.75;;;9.63;69.49
58967;BME280;44744;51.894;5.080;2022-09-21T03:41:36;102786.75;;;9.63;69.55
58967;BME280;44744;51.894;5.080;2022-09-21T03:42:42;102786.81;;;9.60;69.35
58967;BME280;44744;51.894;5.080;2022-09-21T03:43:43;102788.64;;;9.57;69.38
58967;BME280;44744;51.894;5.080;2022-09-21T03:44:43;102788.87;;;9.54;69.33
58967;BME280;44744;51.894;5.080;2022-09-21T03:45:49;102788.54;;;9.52;69.27
58967;BME280;44744;51.894;5.080;2022-09-21T03:46:52;102793.87;;;9.51;69.29
58967;BME280;44744;51.894;5.080;2022-09-21T03:47:58;102788.61;;;9.49;69.32
58967;BME280;44744;51.894;5.080;2022-09-21T03:48:59;102788.63;;;9.48;69.31
58967;BME280;44744;51.894;5.080;2022-09-21T03:50:00;102791.66;;;9.47;69.23
58967;BME280;44744;51.894;5.080;2022-09-21T03:51:11;102792.36;;;9.46;69.19
58967;BME280;44744;51.894;5.080;2022-09-21T03:52:13;102792.55;;;9.46;69.28
58967;BME280;44744;51.894;5.080;2022-09-21T03:53:17;102792.20;;;9.46;69.21
58967;BME280;44744;51.894;5.080;2022-09-21T03:54:17;102791.50;;;9.46;69.23
58967;BME280;44744;51.894;5.080;2022-09-21T03:55:18;102791.35;;;9.44;69.12
58967;BME280;44744;51.894;5.080;2022-09-21T03:56:19;102793.13;;;9.44;69.09
58967;BME280;44744;51.894;5.080;2022-09-21T03:57:20;102792.64;;;9.41;69.01
58967;BME280;44744;51.894;5.080;2022-09-21T03:58:21;102789.69;;;9.38;69.06
58967;BME280;44744;51.894;5.080;2022-09-21T03:59:21;102789.76;;;9.35;69.03
58967;BME280;44744;51.894;5.080;2022-09-21T04:00:31;102791.04;;;9.32;68.94
58967;BME280;44744;51.894;5.080;2022-09-21T04:01:32;102789.33;;;9.29;68.87
58967;BME280;44744;51.894;5.080;2022-09-21T04:02:34;102786.04;;;9.27;69.10
58967;BME280;44744;51.894;5.080;2022-09-21T04:03:36;102789.92;;;9.26;68.97
58967;BME280;44744;51.894;5.080;2022-09-21T04:04:39;102787.66;;;9.23;68.94
58967;BME280;44744;51.894;5.080;2022-09-21T04:05:49;102788.26;;;9.21;68.96
58967;BME280;44744;51.894;5.080;2022-09-21T04:06:51;102789.69;;;9.19;69.02
58967;BME280;44744;51.894;5.080;2022-09-21T04:07:54;102789.22;;;9.17;68.96
58967;BME280;44744;51.894;5.080;2022-09-21T04:08:57;102784.84;;;9.14;69.03
58967;BME280;44744;51.894;5.080;2022-09-21T04:10:29;102782.73;;;9.14;69.15
58967;BME280;44744;51.894;5.080;2022-09-21T04:11:30;102785.71;;;9.14;69.14
58967;BME280;44744;51.894;5.080;2022-09-21T04:12:32;102784.83;;;9.15;69.34
58967;BME280;44744;51.894;5.080;2022-09-21T04:13:37;102780.04;;;9.17;69.32
58967;BME280;44744;51.894;5.080;2022-09-21T04:14:45;102782.15;;;9.16;69.27
58967;BME280;44744;51.894;5.080;2022-09-21T04:15:53;102780.22;;;9.16;69.31
58967;BME280;44744;51.894;5.080;2022-09-21T04:16:54;102777.40;;;9.16;69.32
58967;BME280;44744;51.894;5.080;2022-09-21T04:17:56;102780.05;;;9.17;69.28
58967;BME280;44744;51.894;5.080;2022-09-21T04:19:03;102780.36;;;9.17;69.36
58967;BME280;44744;51.894;5.080;2022-09-21T04:20:09;102778.09;;;9.17;69.38
58967;BME280;44744;51.894;5.080;2022-09-21T04:21:10;102776.48;;;9.18;69.40
58967;BME280;44744;51.894;5.080;2022-09-21T04:22:11;102780.19;;;9.17;69.35
58967;BME280;44744;51.894;5.080;2022-09-21T04:23:11;102776.67;;;9.17;69.25
58967;BME280;44744;51.894;5.080;2022-09-21T04:24:13;102780.40;;;9.16;69.28
58967;BME280;44744;51.894;5.080;2022-09-21T04:25:14;102777.95;;;9.14;69.35
58967;BME280;44744;51.894;5.080;2022-09-21T04:26:27;102780.63;;;9.13;69.29
58967;BME280;44744;51.894;5.080;2022-09-21T04:27:31;102777.84;;;9.11;69.35
58967;BME280;44744;51.894;5.080;2022-09-21T04:28:40;102776.96;;;9.11;69.29
58967;BME280;44744;51.894;5.080;2022-09-21T04:29:43;102776.96;;;9.11;69.48
58967;BME280;44744;51.894;5.080;2022-09-21T04:30:45;102776.77;;;9.12;69.47
58967;BME280;44744;51.894;5.080;2022-09-21T04:31:51;102777.29;;;9.12;69.43
58967;BME280;44744;51.894;5.080;2022-09-21T04:32:56;102777.13;;;9.12;69.57
58967;BME280;44744;51.894;5.080;2022-09-21T04:33:56;102778.52;;;9.12;69.62
58967;BME280;44744;51.894;5.080;2022-09-21T04:35:19;102779.03;;;9.13;69.47
58967;BME280;44744;51.894;5.080;2022-09-21T04:36:23;102776.17;;;9.15;69.64
58967;BME280;44744;51.894;5.080;2022-09-21T04:37:23;102773.89;;;9.15;69.80
58967;BME280;44744;51.894;5.080;2022-09-21T04:38:24;102775.98;;;9.16;69.87
58967;BME280;44744;51.894;5.080;2022-09-21T04:39:27;102776.65;;;9.17;69.75
58967;BME280;44744;51.894;5.080;2022-09-21T04:40:28;102776.10;;;9.19;69.81
58967;BME280;44744;51.894;5.080;2022-09-21T04:41:34;102774.84;;;9.20;69.98
58967;BME280;44744;51.894;5.080;2022-09-21T04:42:41;102772.53;;;9.21;70.01
58967;BME280;44744;51.894;5.080;2022-09-21T04:44:03;102774.09;;;9.22;70.05
58967;BME280;44744;51.894;5.080;2022-09-21T04:45:26;102774.80;;;9.22;70.11
58967;BME280;44744;51.894;5.080;2022-09-21T04:46:30;102772.69;;;9.23;70.28
58967;BME280;44744;51.894;5.080;2022-09-21T04:47:30;102772.00;;;9.21;70.06
58967;BME280;44744;51.894;5.080;2022-09-21T04:48:35;102771.85;;;9.20;70.04
58967;BME280;44744;51.894;5.080;2022-09-21T04:49:40;102774.17;;;9.19;70.08
58967;BME280;44744;51.894;5.080;2022-09-21T04:50:56;102772.43;;;9.17;70.13
58967;BME280;44744;51.894;5.080;2022-09-21T04:52:06;102772.64;;;9.15;70.11
58967;BME280;44744;51.894;5.080;2022-09-21T04:53:10;102774.80;;;9.13;70.13
58967;BME280;44744;51.894;5.080;2022-09-21T04:56:04;102775.64;;;9.05;70.21
58967;BME280;44744;51.894;5.080;2022-09-21T04:57:06;102776.92;;;9.03;70.19
58967;BME280;44744;51.894;5.080;2022-09-21T04:59:05;102782.63;;;9.00;70.27
58967;BME280;44744;51.894;5.080;2022-09-21T05:00:15;102784.27;;;8.97;70.34
58967;BME280;44744;51.894;5.080;2022-09-21T05:01:18;102787.47;;;8.95;70.40
58967;BME280;44744;51.894;5.080;2022-09-21T05:02:22;102790.84;;;8.94;70.38
58967;BME280;44744;51.894;5.080;2022-09-21T05:03:45;102787.34;;;8.93;70.39
58967;BME280;44744;51.894;5.080;2022-09-21T05:06:35;102793.83;;;8.84;70.33
58967;BME280;44744;51.894;5.080;2022-09-21T05:07:36;102794.92;;;8.82;70.35
58967;BME280;44744;51.894;5.080;2022-09-21T05:08:38;102796.36;;;8.81;70.15
58967;BME280;44744;51.894;5.080;2022-09-21T05:09:39;102794.64;;;8.78;70.09
58967;BME280;44744;51.894;5.080;2022-09-21T05:10:41;102800.50;;;8.76;70.06
58967;BME280;44744;51.894;5.080;2022-09-21T05:11:44;102799.31;;;8.73;69.92
58967;BME280;44744;51.894;5.080;2022-09-21T05:12:47;102800.44;;;8.68;69.76
58967;BME280;44744;51.894;5.080;2022-09-21T05:13:48;102802.27;;;8.64;69.58
58967;BME280;44744;51.894;5.080;2022-09-21T05:14:53;102805.64;;;8.63;69.62
58967;BME280;44744;51.894;5.080;2022-09-21T05:16:27;102808.66;;;8.61;69.52
58967;BME280;44744;51.894;5.080;2022-09-21T05:17:29;102804.65;;;8.58;69.36
58967;BME280;44744;51.894;5.080;2022-09-21T05:18:30;102804.17;;;8.55;69.44
58967;BME280;44744;51.894;5.080;2022-09-21T05:19:32;102806.14;;;8.52;69.35
58967;BME280;44744;51.894;5.080;2022-09-21T05:20:41;102807.63;;;8.48;69.25
58967;BME280;44744;51.894;5.080;2022-09-21T05:21:42;102805.73;;;8.44;69.07
58967;BME280;44744;51.894;5.080;2022-09-21T05:22:42;102810.50;;;8.42;69.13
58967;BME280;44744;51.894;5.080;2022-09-21T05:23:46;102808.78;;;8.39;69.07
58967;BME280;44744;51.894;5.080;2022-09-21T05:24:47;102807.42;;;8.35;69.01
58967;BME280;44744;51.894;5.080;2022-09-21T05:25:52;102809.40;;;8.32;68.95
58967;BME280;44744;51.894;5.080;2022-09-21T05:26:53;102808.05;;;8.29;68.89
58967;BME280;44744;51.894;5.080;2022-09-21T05:27:53;102809.83;;;8.28;69.03
58967;BME280;44744;51.894;5.080;2022-09-21T05:28:54;102808.45;;;8.27;68.99
58967;BME280;44744;51.894;5.080;2022-09-21T05:29:59;102808.45;;;8.26;68.95
58967;BME280;44744;51.894;5.080;2022-09-21T05:31:08;102808.79;;;8.26;68.96
58967;BME280;44744;51.894;5.080;2022-09-21T05:33:06;102810.39;;;8.25;68.90
58967;BME280;44744;51.894;5.080;2022-09-21T05:33:51;102812.20;;;8.22;68.97
58967;BME280;44744;51.894;5.080;2022-09-21T05:38:36;102811.27;;;8.25;69.01
58967;BME280;44744;51.894;5.080;2022-09-21T05:39:40;102810.04;;;8.25;69.11
58967;BME280;44744;51.894;5.080;2022-09-21T05:40:46;102815.87;;;8.24;69.10
58967;BME280;44744;51.894;5.080;2022-09-21T05:41:46;102816.04;;;8.24;68.93
58967;BME280;44744;51.894;5.080;2022-09-21T05:42:48;102814.66;;;8.22;69.14
58967;BME280;44744;51.894;5.080;2022-09-21T05:43:50;102815.56;;;8.20;69.10
58967;BME280;44744;51.894;5.080;2022-09-21T05:44:52;102819.80;;;8.20;69.24
58967;BME280;44744;51.894;5.080;2022-09-21T05:46:39;102817.52;;;8.19;69.12
58967;BME280;44744;51.894;5.080;2022-09-21T05:48:55;102813.66;;;8.18;69.21
58967;BME280;44744;51.894;5.080;2022-09-21T05:50:32;102816.28;;;8.19;69.42
58967;BME280;44744;51.894;5.080;2022-09-21T05:52:05;102816.65;;;8.17;69.54
58967;BME280;44744;51.894;5.080;2022-09-21T06:00:56;102821.43;;;8.16;69.68
58967;BME280;44744;51.894;5.080;2022-09-21T06:03:56;102824.77;;;8.17;70.04
58967;BME280;44744;51.894;5.080;2022-09-21T06:05:12;102832.52;;;8.17;69.98
58967;BME280;44744;51.894;5.080;2022-09-21T06:06:18;102834.26;;;8.19;70.09
58967;BME280;44744;51.894;5.080;2022-09-21T06:07:37;102835.33;;;8.19;70.14
58967;BME280;44744;51.894;5.080;2022-09-21T06:08:39;102835.31;;;8.20;70.16
58967;BME280;44744;51.894;5.080;2022-09-21T06:09:40;102837.07;;;8.20;70.11
58967;BME280;44744;51.894;5.080;2022-09-21T06:10:44;102837.95;;;8.19;70.26
58967;BME280;44744;51.894;5.080;2022-09-21T06:12:09;102838.13;;;8.20;70.20
58967;BME280;44744;51.894;5.080;2022-09-21T06:13:31;102839.89;;;8.20;70.37
58967;BME280;44744;51.894;5.080;2022-09-21T06:14:37;102840.09;;;8.19;70.28
58967;BME280;44744;51.894;5.080;2022-09-21T06:15:43;102844.30;;;8.19;70.35
58967;BME280;44744;51.894;5.080;2022-09-21T06:16:57;102843.10;;;8.18;70.42
58967;BME280;44744;51.894;5.080;2022-09-21T06:17:57;102840.61;;;8.18;70.39
58967;BME280;44744;51.894;5.080;2022-09-21T06:19:00;102843.27;;;8.18;70.50
58967;BME280;44744;51.894;5.080;2022-09-21T06:20:07;102841.66;;;8.19;70.64
58967;BME280;44744;51.894;5.080;2022-09-21T06:21:12;102841.64;;;8.20;70.71
58967;BME280;44744;51.894;5.080;2022-09-21T06:22:21;102841.98;;;8.22;70.83
58967;BME280;44744;51.894;5.080;2022-09-21T06:23:31;102845.86;;;8.23;70.72
58967;BME280;44744;51.894;5.080;2022-09-21T06:24:37;102844.24;;;8.24;70.85
58967;BME280;44744;51.894;5.080;2022-09-21T06:25:40;102844.77;;;8.25;71.02
58967;BME280;44744;51.894;5.080;2022-09-21T06:26:44;102844.04;;;8.26;70.90
58967;BME280;44744;51.894;5.080;2022-09-21T06:27:44;102845.63;;;8.27;70.98
58967;BME280;44744;51.894;5.080;2022-09-21T06:28:47;102844.91;;;8.27;70.96
58967;BME280;44744;51.894;5.080;2022-09-21T06:29:52;102844.52;;;8.29;70.97
58967;BME280;44744;51.894;5.080;2022-09-21T06:30:56;102848.73;;;8.30;71.00
58967;BME280;44744;51.894;5.080;2022-09-21T06:31:57;102844.66;;;8.31;71.16
58967;BME280;44744;51.894;5.080;2022-09-21T06:33:02;102847.48;;;8.32;71.04
58967;BME280;44744;51.894;5.080;2022-09-21T06:34:07;102846.08;;;8.33;71.07
58967;BME280;44744;51.894;5.080;2022-09-21T06:35:13;102845.88;;;8.33;71.18
58967;BME280;44744;51.894;5.080;2022-09-21T06:36:14;102846.23;;;8.34;71.24
58967;BME280;44744;51.894;5.080;2022-09-21T06:37:16;102850.43;;;8.35;71.18
58967;BME280;44744;51.894;5.080;2022-09-21T06:38:18;102849.20;;;8.36;71.27